sensor_id;sensor_type;location;lat;lon;timestamp;P1;durP1;ratioP1;P2;durP2;ratioP2
48596;SDS011;34382;43.160;24.148;2023-12-14T00:00:56;34.95;;;22.50;;
48596;SDS011;34382;43.160;24.148;2023-12-14T00:02:28;38.85;;;24.67;;
48596;SDS011;34382;43.160;24.148;2023-12-14T00:04:00;41.95;;;27.45;;
48596;SDS011;34382;43.160;24.148;2023-12-14T00:05:35;48.38;;;30.42;;
48596;SDS011;34382;43.160;24.148;2023-12-14T00:07:08;41.17;;;26.17;;
48596;SDS011;34382;43.160;24.148;2023-12-14T00:08:40;42.78;;;26.33;;
48596;SDS011;34382;43.160;24.148;2023-12-14T00:10:12;40.88;;;25.13;;
48596;SDS011;34382;43.160;24.148;2023-12-14T00:11:45;40.70;;;26.92;;
48596;SDS011;34382;43.160;24.148;2023-12-14T00:13:17;43.20;;;26.75;;
48596;SDS011;34382;43.160;24.148;2023-12-14T00:14:49;38.28;;;24.95;;
48596;SDS011;34382;43.160;24.148;2023-12-14T00:16:21;37.58;;;23.00;;
48596;SDS011;34382;43.160;24.148;2023-12-14T00:17:54;38.80;;;24.98;;
48596;SDS011;34382;43.160;24.148;2023-12-14T00:19:27;41.15;;;24.95;;
48596;SDS011;34382;43.160;24.148;2023-12-14T00:20:59;46.03;;;29.40;;
48596;SDS011;34382;43.160;24.148;2023-12-14T00:22:31;59.85;;;35.13;;
48596;SDS011;34382;43.160;24.148;2023-12-14T00:24:04;39.53;;;25.80;;
48596;SDS011;34382;43.160;24.148;2023-12-14T00:25:37;38.58;;;24.30;;
48596;SDS011;34382;43.160;24.148;2023-12-14T00:27:09;42.08;;;27.05;;
48596;SDS011;34382;43.160;24.148;2023-12-14T00:28:41;46.88;;;27.92;;
48596;SDS011;34382;43.160;24.148;2023-12-14T00:30:14;40.67;;;25.30;;
48596;SDS011;34382;43.160;24.148;2023-12-14T00:31:46;49.17;;;27.52;;
48596;SDS011;34382;43.160;24.148;2023-12-14T00:33:18;38.80;;;24.67;;
48596;SDS011;34382;43.160;24.148;2023-12-14T00:34:51;40.50;;;25.47;;
48596;SDS011;34382;43.160;24.148;2023-12-14T00:36:23;41.95;;;26.27;;
48596;SDS011;34382;43.160;24.148;2023-12-14T00:37:56;37.33;;;25.20;;
48596;SDS011;34382;43.160;24.148;2023-12-14T00:39:28;41.15;;;25.08;;
48596;SDS011;34382;43.160;24.148;2023-12-14T00:41:00;40.38;;;26.00;;
48596;SDS011;34382;43.160;24.148;2023-12-14T00:42:32;40.40;;;25.55;;
48596;SDS011;34382;43.160;24.148;2023-12-14T00:45:38;38.80;;;25.77;;
48596;SDS011;34382;43.160;24.148;2023-12-14T00:47:13;40.25;;;25.13;;
48596;SDS011;34382;43.160;24.148;2023-12-14T00:48:45;37.58;;;23.40;;
48596;SDS011;34382;43.160;24.148;2023-12-14T00:50:17;31.05;;;21.27;;
48596;SDS011;34382;43.160;24.148;2023-12-14T00:51:49;39.38;;;23.90;;
48596;SDS011;34382;43.160;24.148;2023-12-14T00:53:22;32.85;;;19.67;;
48596;SDS011;34382;43.160;24.148;2023-12-14T00:54:54;35.17;;;22.42;;
48596;SDS011;34382;43.160;24.148;2023-12-14T00:56:26;28.75;;;17.75;;
48596;SDS011;34382;43.160;24.148;2023-12-14T00:57:58;35.53;;;22.85;;
48596;SDS011;34382;43.160;24.148;2023-12-14T00:59:31;37.03;;;24.00;;
48596;SDS011;34382;43.160;24.148;2023-12-14T01:01:03;37.92;;;22.58;;
48596;SDS011;34382;43.160;24.148;2023-12-14T01:02:36;34.90;;;22.33;;
48596;SDS011;34382;43.160;24.148;2023-12-14T01:04:09;27.30;;;16.73;;
48596;SDS011;34382;43.160;24.148;2023-12-14T01:05:41;28.00;;;16.38;;
48596;SDS011;34382;43.160;24.148;2023-12-14T01:07:13;28.25;;;18.33;;
48596;SDS011;34382;43.160;24.148;2023-12-14T01:08:46;30.05;;;18.05;;
48596;SDS011;34382;43.160;24.148;2023-12-14T01:10:18;31.02;;;18.60;;
48596;SDS011;34382;43.160;24.148;2023-12-14T01:11:50;25.95;;;16.35;;
48596;SDS011;34382;43.160;24.148;2023-12-14T01:13:23;31.42;;;18.55;;
48596;SDS011;34382;43.160;24.148;2023-12-14T01:14:55;27.38;;;17.27;;
48596;SDS011;34382;43.160;24.148;2023-12-14T01:16:27;27.75;;;17.60;;
48596;SDS011;34382;43.160;24.148;2023-12-14T01:17:59;24.17;;;15.70;;
48596;SDS011;34382;43.160;24.148;2023-12-14T01:19:32;27.20;;;16.25;;
48596;SDS011;34382;43.160;24.148;2023-12-14T01:21:04;23.30;;;15.35;;
48596;SDS011;34382;43.160;24.148;2023-12-14T01:22:36;24.25;;;15.02;;
48596;SDS011;34382;43.160;24.148;2023-12-14T01:24:09;24.73;;;14.52;;
48596;SDS011;34382;43.160;24.148;2023-12-14T01:25:42;25.33;;;15.10;;
48596;SDS011;34382;43.160;24.148;2023-12-14T01:27:14;25.88;;;14.65;;
48596;SDS011;34382;43.160;24.148;2023-12-14T01:28:47;29.02;;;15.45;;
48596;SDS011;34382;43.160;24.148;2023-12-14T01:30:21;25.58;;;16.05;;
48596;SDS011;34382;43.160;24.148;2023-12-14T01:31:54;22.48;;;13.95;;
48596;SDS011;34382;43.160;24.148;2023-12-14T01:33:26;27.25;;;16.05;;
48596;SDS011;34382;43.160;24.148;2023-12-14T01:34:58;22.55;;;13.32;;
48596;SDS011;34382;43.160;24.148;2023-12-14T01:36:31;20.33;;;13.20;;
48596;SDS011;34382;43.160;24.148;2023-12-14T01:38:03;22.75;;;12.52;;
48596;SDS011;34382;43.160;24.148;2023-12-14T01:39:35;24.13;;;13.05;;
48596;SDS011;34382;43.160;24.148;2023-12-14T01:41:08;21.50;;;13.50;;
48596;SDS011;34382;43.160;24.148;2023-12-14T01:42:40;19.52;;;11.38;;
48596;SDS011;34382;43.160;24.148;2023-12-14T01:44:12;17.77;;;11.63;;
48596;SDS011;34382;43.160;24.148;2023-12-14T01:45:44;19.15;;;11.70;;
48596;SDS011;34382;43.160;24.148;2023-12-14T01:47:17;21.55;;;12.48;;
48596;SDS011;34382;43.160;24.148;2023-12-14T01:48:49;22.73;;;12.85;;
48596;SDS011;34382;43.160;24.148;2023-12-14T01:50:23;18.13;;;10.77;;
48596;SDS011;34382;43.160;24.148;2023-12-14T01:51:55;20.63;;;11.80;;
48596;SDS011;34382;43.160;24.148;2023-12-14T01:53:28;23.73;;;12.93;;
48596;SDS011;34382;43.160;24.148;2023-12-14T01:55:00;18.58;;;11.95;;
48596;SDS011;34382;43.160;24.148;2023-12-14T01:56:37;21.35;;;11.93;;
48596;SDS011;34382;43.160;24.148;2023-12-14T01:58:10;19.98;;;11.27;;
48596;SDS011;34382;43.160;24.148;2023-12-14T01:59:42;18.13;;;11.38;;
48596;SDS011;34382;43.160;24.148;2023-12-14T02:02:51;15.98;;;8.80;;
48596;SDS011;34382;43.160;24.148;2023-12-14T02:04:23;16.05;;;8.82;;
48596;SDS011;34382;43.160;24.148;2023-12-14T02:05:59;17.80;;;8.65;;
48596;SDS011;34382;43.160;24.148;2023-12-14T02:07:32;14.73;;;8.82;;
48596;SDS011;34382;43.160;24.148;2023-12-14T02:09:04;14.45;;;8.68;;
48596;SDS011;34382;43.160;24.148;2023-12-14T02:10:37;16.25;;;9.20;;
48596;SDS011;34382;43.160;24.148;2023-12-14T02:12:09;15.13;;;8.85;;
48596;SDS011;34382;43.160;24.148;2023-12-14T02:13:41;16.50;;;9.63;;
48596;SDS011;34382;43.160;24.148;2023-12-14T02:15:14;20.95;;;11.07;;
48596;SDS011;34382;43.160;24.148;2023-12-14T02:16:46;15.90;;;9.32;;
48596;SDS011;34382;43.160;24.148;2023-12-14T02:18:19;16.80;;;9.40;;
48596;SDS011;34382;43.160;24.148;2023-12-14T02:19:51;16.25;;;8.32;;
48596;SDS011;34382;43.160;24.148;2023-12-14T02:21:23;17.50;;;10.07;;
48596;SDS011;34382;43.160;24.148;2023-12-14T02:22:56;15.80;;;9.38;;
48596;SDS011;34382;43.160;24.148;2023-12-14T02:24:28;14.73;;;7.70;;
48596;SDS011;34382;43.160;24.148;2023-12-14T02:26:01;17.15;;;8.80;;
48596;SDS011;34382;43.160;24.148;2023-12-14T02:27:36;15.35;;;7.97;;
48596;SDS011;34382;43.160;24.148;2023-12-14T02:29:08;16.80;;;8.93;;
48596;SDS011;34382;43.160;24.148;2023-12-14T02:30:40;16.85;;;8.55;;
48596;SDS011;34382;43.160;24.148;2023-12-14T02:32:13;15.70;;;7.75;;
48596;SDS011;34382;43.160;24.148;2023-12-14T02:33:45;15.52;;;8.75;;
48596;SDS011;34382;43.160;24.148;2023-12-14T02:35:17;18.60;;;8.57;;
48596;SDS011;34382;43.160;24.148;2023-12-14T02:36:50;13.70;;;7.70;;
48596;SDS011;34382;43.160;24.148;2023-12-14T02:38:22;14.15;;;7.60;;
48596;SDS011;34382;43.160;24.148;2023-12-14T02:39:54;16.70;;;8.25;;
48596;SDS011;34382;43.160;24.148;2023-12-14T02:41:27;16.05;;;8.75;;
48596;SDS011;34382;43.160;24.148;2023-12-14T02:42:59;15.15;;;8.43;;
48596;SDS011;34382;43.160;24.148;2023-12-14T02:44:31;14.07;;;8.07;;
48596;SDS011;34382;43.160;24.148;2023-12-14T02:46:03;15.23;;;7.85;;
48596;SDS011;34382;43.160;24.148;2023-12-14T02:47:36;14.77;;;7.93;;
48596;SDS011;34382;43.160;24.148;2023-12-14T02:49:11;15.38;;;7.95;;
48596;SDS011;34382;43.160;24.148;2023-12-14T02:50:44;14.35;;;7.55;;
48596;SDS011;34382;43.160;24.148;2023-12-14T02:52:16;12.85;;;6.97;;
48596;SDS011;34382;43.160;24.148;2023-12-14T02:53:48;13.68;;;7.40;;
48596;SDS011;34382;43.160;24.148;2023-12-14T02:55:21;13.00;;;7.28;;
48596;SDS011;34382;43.160;24.148;2023-12-14T02:56:53;16.40;;;8.60;;
48596;SDS011;34382;43.160;24.148;2023-12-14T02:58:25;13.13;;;7.00;;
48596;SDS011;34382;43.160;24.148;2023-12-14T02:59:58;15.32;;;7.35;;
48596;SDS011;34382;43.160;24.148;2023-12-14T03:01:30;13.98;;;7.93;;
48596;SDS011;34382;43.160;24.148;2023-12-14T03:03:02;14.38;;;7.15;;
48596;SDS011;34382;43.160;24.148;2023-12-14T03:04:37;12.82;;;6.45;;
48596;SDS011;34382;43.160;24.148;2023-12-14T03:06:10;13.38;;;7.35;;
48596;SDS011;34382;43.160;24.148;2023-12-14T03:07:42;12.45;;;7.03;;
48596;SDS011;34382;43.160;24.148;2023-12-14T03:09:15;13.68;;;7.20;;
48596;SDS011;34382;43.160;24.148;2023-12-14T03:10:47;14.70;;;8.10;;
48596;SDS011;34382;43.160;24.148;2023-12-14T03:12:19;14.00;;;7.38;;
48596;SDS011;34382;43.160;24.148;2023-12-14T03:13:52;14.20;;;7.65;;
48596;SDS011;34382;43.160;24.148;2023-12-14T03:15:24;13.35;;;7.20;;
48596;SDS011;34382;43.160;24.148;2023-12-14T03:16:57;35.08;;;19.50;;
48596;SDS011;34382;43.160;24.148;2023-12-14T03:18:29;24.48;;;15.15;;
48596;SDS011;34382;43.160;24.148;2023-12-14T03:20:01;18.73;;;10.07;;
48596;SDS011;34382;43.160;24.148;2023-12-14T03:21:35;20.05;;;11.73;;
48596;SDS011;34382;43.160;24.148;2023-12-14T03:23:07;17.20;;;9.90;;
48596;SDS011;34382;43.160;24.148;2023-12-14T03:24:40;17.95;;;9.95;;
48596;SDS011;34382;43.160;24.148;2023-12-14T03:26:12;17.55;;;10.10;;
48596;SDS011;34382;43.160;24.148;2023-12-14T03:27:44;18.17;;;11.52;;
48596;SDS011;34382;43.160;24.148;2023-12-14T03:29:17;19.90;;;11.07;;
48596;SDS011;34382;43.160;24.148;2023-12-14T03:30:50;18.83;;;10.57;;
48596;SDS011;34382;43.160;24.148;2023-12-14T03:32:22;16.67;;;10.27;;
48596;SDS011;34382;43.160;24.148;2023-12-14T03:33:54;18.13;;;10.02;;
48596;SDS011;34382;43.160;24.148;2023-12-14T03:35:29;18.67;;;9.40;;
48596;SDS011;34382;43.160;24.148;2023-12-14T03:37:01;14.45;;;8.50;;
48596;SDS011;34382;43.160;24.148;2023-12-14T03:38:33;11.77;;;7.13;;
48596;SDS011;34382;43.160;24.148;2023-12-14T03:40:06;13.00;;;6.90;;
48596;SDS011;34382;43.160;24.148;2023-12-14T03:41:38;15.63;;;8.88;;
48596;SDS011;34382;43.160;24.148;2023-12-14T03:43:11;14.57;;;8.68;;
48596;SDS011;34382;43.160;24.148;2023-12-14T03:44:43;14.13;;;7.95;;
48596;SDS011;34382;43.160;24.148;2023-12-14T03:46:15;17.48;;;7.85;;
48596;SDS011;34382;43.160;24.148;2023-12-14T03:47:48;13.05;;;7.07;;
48596;SDS011;34382;43.160;24.148;2023-12-14T03:49:20;13.75;;;6.57;;
48596;SDS011;34382;43.160;24.148;2023-12-14T03:50:53;10.90;;;6.00;;
48596;SDS011;34382;43.160;24.148;2023-12-14T03:52:25;14.52;;;7.90;;
48596;SDS011;34382;43.160;24.148;2023-12-14T03:53:59;16.92;;;8.02;;
48596;SDS011;34382;43.160;24.148;2023-12-14T03:55:32;12.38;;;6.68;;
48596;SDS011;34382;43.160;24.148;2023-12-14T03:57:04;12.93;;;6.90;;
48596;SDS011;34382;43.160;24.148;2023-12-14T03:58:37;15.38;;;7.90;;
48596;SDS011;34382;43.160;24.148;2023-12-14T04:00:10;19.88;;;9.93;;
48596;SDS011;34382;43.160;24.148;2023-12-14T04:01:45;20.13;;;11.25;;
48596;SDS011;34382;43.160;24.148;2023-12-14T04:03:18;21.45;;;10.68;;
48596;SDS011;34382;43.160;24.148;2023-12-14T04:04:50;20.85;;;12.30;;
48596;SDS011;34382;43.160;24.148;2023-12-14T04:06:22;16.98;;;9.60;;
48596;SDS011;34382;43.160;24.148;2023-12-14T04:07:55;18.60;;;9.85;;
48596;SDS011;34382;43.160;24.148;2023-12-14T04:09:27;20.02;;;10.68;;
48596;SDS011;34382;43.160;24.148;2023-12-14T04:10:59;18.70;;;11.15;;
48596;SDS011;34382;43.160;24.148;2023-12-14T04:12:32;17.90;;;9.88;;
48596;SDS011;34382;43.160;24.148;2023-12-14T04:14:04;15.48;;;8.65;;
48596;SDS011;34382;43.160;24.148;2023-12-14T04:15:37;16.48;;;9.20;;
48596;SDS011;34382;43.160;24.148;2023-12-14T04:17:09;13.68;;;6.63;;
48596;SDS011;34382;43.160;24.148;2023-12-14T04:18:42;13.65;;;7.10;;
48596;SDS011;34382;43.160;24.148;2023-12-14T04:20:14;15.23;;;7.95;;
48596;SDS011;34382;43.160;24.148;2023-12-14T04:21:47;11.30;;;6.10;;
48596;SDS011;34382;43.160;24.148;2023-12-14T04:23:20;12.10;;;6.00;;
48596;SDS011;34382;43.160;24.148;2023-12-14T04:24:52;13.55;;;6.85;;
48596;SDS011;34382;43.160;24.148;2023-12-14T04:26:24;13.50;;;6.75;;
48596;SDS011;34382;43.160;24.148;2023-12-14T04:27:57;13.38;;;6.65;;
48596;SDS011;34382;43.160;24.148;2023-12-14T04:29:29;14.57;;;6.88;;
48596;SDS011;34382;43.160;24.148;2023-12-14T04:31:02;10.30;;;5.10;;
48596;SDS011;34382;43.160;24.148;2023-12-14T04:32:34;13.13;;;6.35;;
48596;SDS011;34382;43.160;24.148;2023-12-14T04:34:07;11.93;;;5.93;;
48596;SDS011;34382;43.160;24.148;2023-12-14T04:35:44;11.55;;;6.18;;
48596;SDS011;34382;43.160;24.148;2023-12-14T04:37:16;12.10;;;7.03;;
48596;SDS011;34382;43.160;24.148;2023-12-14T04:38:48;10.73;;;5.90;;
48596;SDS011;34382;43.160;24.148;2023-12-14T04:40:20;14.20;;;6.30;;
48596;SDS011;34382;43.160;24.148;2023-12-14T04:41:53;10.52;;;5.90;;
48596;SDS011;34382;43.160;24.148;2023-12-14T04:44:58;12.57;;;6.47;;
48596;SDS011;34382;43.160;24.148;2023-12-14T04:46:30;15.93;;;7.97;;
48596;SDS011;34382;43.160;24.148;2023-12-14T04:48:03;17.35;;;8.73;;
48596;SDS011;34382;43.160;24.148;2023-12-14T04:49:35;15.87;;;7.70;;
48596;SDS011;34382;43.160;24.148;2023-12-14T04:51:13;18.42;;;10.60;;
48596;SDS011;34382;43.160;24.148;2023-12-14T04:52:45;21.23;;;12.68;;
48596;SDS011;34382;43.160;24.148;2023-12-14T04:54:18;19.50;;;12.38;;
48596;SDS011;34382;43.160;24.148;2023-12-14T04:55:50;18.42;;;11.43;;
48596;SDS011;34382;43.160;24.148;2023-12-14T04:57:23;12.52;;;6.55;;
48596;SDS011;34382;43.160;24.148;2023-12-14T04:58:55;12.25;;;5.72;;
48596;SDS011;34382;43.160;24.148;2023-12-14T05:00:27;12.52;;;6.07;;
48596;SDS011;34382;43.160;24.148;2023-12-14T05:01:59;12.98;;;7.72;;
48596;SDS011;34382;43.160;24.148;2023-12-14T05:03:33;19.02;;;9.23;;
48596;SDS011;34382;43.160;24.148;2023-12-14T05:05:06;18.58;;;11.68;;
48596;SDS011;34382;43.160;24.148;2023-12-14T05:06:38;22.38;;;11.90;;
48596;SDS011;34382;43.160;24.148;2023-12-14T05:08:11;20.05;;;12.45;;
48596;SDS011;34382;43.160;24.148;2023-12-14T05:09:43;20.20;;;13.02;;
48596;SDS011;34382;43.160;24.148;2023-12-14T05:11:16;22.08;;;13.25;;
48596;SDS011;34382;43.160;24.148;2023-12-14T05:12:48;20.08;;;12.63;;
48596;SDS011;34382;43.160;24.148;2023-12-14T05:14:20;23.27;;;13.13;;
48596;SDS011;34382;43.160;24.148;2023-12-14T05:15:53;25.10;;;14.10;;
48596;SDS011;34382;43.160;24.148;2023-12-14T05:17:25;24.33;;;14.18;;
48596;SDS011;34382;43.160;24.148;2023-12-14T05:18:57;24.38;;;13.65;;
48596;SDS011;34382;43.160;24.148;2023-12-14T05:20:31;27.63;;;12.93;;
48596;SDS011;34382;43.160;24.148;2023-12-14T05:22:03;28.15;;;14.50;;
48596;SDS011;34382;43.160;24.148;2023-12-14T05:23:36;26.93;;;14.37;;
48596;SDS011;34382;43.160;24.148;2023-12-14T05:25:08;29.42;;;14.32;;
48596;SDS011;34382;43.160;24.148;2023-12-14T05:26:41;31.42;;;15.48;;
48596;SDS011;34382;43.160;24.148;2023-12-14T05:28:13;31.52;;;15.38;;
48596;SDS011;34382;43.160;24.148;2023-12-14T05:29:46;30.92;;;14.90;;
48596;SDS011;34382;43.160;24.148;2023-12-14T05:31:18;29.73;;;14.98;;
48596;SDS011;34382;43.160;24.148;2023-12-14T05:32:51;28.05;;;13.90;;
48596;SDS011;34382;43.160;24.148;2023-12-14T05:34:23;27.35;;;14.07;;
48596;SDS011;34382;43.160;24.148;2023-12-14T05:35:55;28.67;;;14.45;;
48596;SDS011;34382;43.160;24.148;2023-12-14T05:37:28;28.73;;;14.95;;
48596;SDS011;34382;43.160;24.148;2023-12-14T05:39:00;24.58;;;13.90;;
48596;SDS011;34382;43.160;24.148;2023-12-14T05:40:33;28.45;;;14.55;;
48596;SDS011;34382;43.160;24.148;2023-12-14T05:42:05;27.45;;;14.95;;
48596;SDS011;34382;43.160;24.148;2023-12-14T05:43:38;28.00;;;13.57;;
48596;SDS011;34382;43.160;24.148;2023-12-14T05:45:10;29.48;;;14.73;;
48596;SDS011;34382;43.160;24.148;2023-12-14T05:46:43;28.75;;;15.85;;
48596;SDS011;34382;43.160;24.148;2023-12-14T05:48:15;24.98;;;14.02;;
48596;SDS011;34382;43.160;24.148;2023-12-14T05:49:48;29.95;;;13.18;;
48596;SDS011;34382;43.160;24.148;2023-12-14T05:51:30;29.52;;;14.65;;
48596;SDS011;34382;43.160;24.148;2023-12-14T05:53:03;22.90;;;13.25;;
48596;SDS011;34382;43.160;24.148;2023-12-14T05:54:36;26.60;;;14.17;;
48596;SDS011;34382;43.160;24.148;2023-12-14T05:56:12;23.65;;;12.77;;
48596;SDS011;34382;43.160;24.148;2023-12-14T05:57:44;27.50;;;12.93;;
48596;SDS011;34382;43.160;24.148;2023-12-14T05:59:17;27.10;;;14.27;;
48596;SDS011;34382;43.160;24.148;2023-12-14T06:00:50;27.35;;;14.70;;
48596;SDS011;34382;43.160;24.148;2023-12-14T06:02:22;28.27;;;14.43;;
48596;SDS011;34382;43.160;24.148;2023-12-14T06:03:55;31.38;;;15.43;;
48596;SDS011;34382;43.160;24.148;2023-12-14T06:05:27;33.20;;;17.42;;
48596;SDS011;34382;43.160;24.148;2023-12-14T06:07:00;29.67;;;17.05;;
48596;SDS011;34382;43.160;24.148;2023-12-14T06:08:32;27.95;;;16.73;;
48596;SDS011;34382;43.160;24.148;2023-12-14T06:10:05;31.33;;;17.25;;
48596;SDS011;34382;43.160;24.148;2023-12-14T06:11:37;31.92;;;17.40;;
48596;SDS011;34382;43.160;24.148;2023-12-14T06:13:10;31.38;;;17.15;;
48596;SDS011;34382;43.160;24.148;2023-12-14T06:14:42;32.45;;;17.55;;
48596;SDS011;34382;43.160;24.148;2023-12-14T06:16:16;32.17;;;19.17;;
48596;SDS011;34382;43.160;24.148;2023-12-14T06:17:49;35.38;;;19.10;;
48596;SDS011;34382;43.160;24.148;2023-12-14T06:19:22;30.48;;;17.92;;
48596;SDS011;34382;43.160;24.148;2023-12-14T06:20:54;31.00;;;17.58;;
48596;SDS011;34382;43.160;24.148;2023-12-14T06:22:26;29.42;;;16.63;;
48596;SDS011;34382;43.160;24.148;2023-12-14T06:23:59;31.75;;;17.35;;
48596;SDS011;34382;43.160;24.148;2023-12-14T06:25:31;29.07;;;16.67;;
48596;SDS011;34382;43.160;24.148;2023-12-14T06:27:04;28.60;;;15.13;;
48596;SDS011;34382;43.160;24.148;2023-12-14T06:28:36;30.83;;;16.13;;
48596;SDS011;34382;43.160;24.148;2023-12-14T06:30:08;30.13;;;14.85;;
48596;SDS011;34382;43.160;24.148;2023-12-14T06:31:44;25.42;;;14.13;;
48596;SDS011;34382;43.160;24.148;2023-12-14T06:33:18;27.73;;;15.18;;
48596;SDS011;34382;43.160;24.148;2023-12-14T06:34:50;33.70;;;16.60;;
48596;SDS011;34382;43.160;24.148;2023-12-14T06:36:23;58.78;;;30.73;;
48596;SDS011;34382;43.160;24.148;2023-12-14T06:37:58;89.78;;;45.03;;
48596;SDS011;34382;43.160;24.148;2023-12-14T06:39:31;62.03;;;31.63;;
48596;SDS011;34382;43.160;24.148;2023-12-14T06:41:06;46.67;;;27.95;;
48596;SDS011;34382;43.160;24.148;2023-12-14T06:42:39;41.38;;;22.50;;
48596;SDS011;34382;43.160;24.148;2023-12-14T06:44:11;39.30;;;20.93;;
48596;SDS011;34382;43.160;24.148;2023-12-14T06:45:44;35.75;;;19.42;;
48596;SDS011;34382;43.160;24.148;2023-12-14T06:47:16;31.55;;;18.27;;
48596;SDS011;34382;43.160;24.148;2023-12-14T06:48:49;31.67;;;17.23;;
48596;SDS011;34382;43.160;24.148;2023-12-14T06:50:21;30.95;;;17.73;;
48596;SDS011;34382;43.160;24.148;2023-12-14T06:51:54;32.60;;;17.75;;
48596;SDS011;34382;43.160;24.148;2023-12-14T06:53:26;28.95;;;16.58;;
48596;SDS011;34382;43.160;24.148;2023-12-14T06:54:59;27.23;;;15.23;;
48596;SDS011;34382;43.160;24.148;2023-12-14T06:56:31;27.63;;;14.68;;
48596;SDS011;34382;43.160;24.148;2023-12-14T06:58:03;26.05;;;14.13;;
48596;SDS011;34382;43.160;24.148;2023-12-14T06:59:40;24.92;;;13.63;;
48596;SDS011;34382;43.160;24.148;2023-12-14T07:01:13;25.23;;;14.35;;
48596;SDS011;34382;43.160;24.148;2023-12-14T07:02:46;27.95;;;15.45;;
48596;SDS011;34382;43.160;24.148;2023-12-14T07:23:35;28.80;;;16.25;;
48596;SDS011;34382;43.160;24.148;2023-12-14T07:25:09;33.13;;;19.75;;
48596;SDS011;34382;43.160;24.148;2023-12-14T07:26:41;31.35;;;18.92;;
48596;SDS011;34382;43.160;24.148;2023-12-14T07:28:13;32.15;;;19.45;;
48596;SDS011;34382;43.160;24.148;2023-12-14T07:29:45;35.47;;;21.48;;
48596;SDS011;34382;43.160;24.148;2023-12-14T07:31:18;31.73;;;18.30;;
48596;SDS011;34382;43.160;24.148;2023-12-14T07:32:50;30.95;;;19.48;;
48596;SDS011;34382;43.160;24.148;2023-12-14T07:34:25;31.05;;;17.90;;
48596;SDS011;34382;43.160;24.148;2023-12-14T07:35:59;30.98;;;20.42;;
48596;SDS011;34382;43.160;24.148;2023-12-14T07:37:32;28.95;;;16.38;;
48596;SDS011;34382;43.160;24.148;2023-12-14T07:39:04;33.28;;;19.55;;
48596;SDS011;34382;43.160;24.148;2023-12-14T07:40:37;50.10;;;25.23;;
48596;SDS011;34382;43.160;24.148;2023-12-14T07:43:44;58.47;;;28.45;;
48596;SDS011;34382;43.160;24.148;2023-12-14T07:45:16;59.58;;;29.80;;
48596;SDS011;34382;43.160;24.148;2023-12-14T07:46:49;44.97;;;23.42;;
48596;SDS011;34382;43.160;24.148;2023-12-14T07:48:21;42.88;;;23.67;;
48596;SDS011;34382;43.160;24.148;2023-12-14T07:49:53;43.25;;;23.30;;
48596;SDS011;34382;43.160;24.148;2023-12-14T07:51:26;32.05;;;18.63;;
48596;SDS011;34382;43.160;24.148;2023-12-14T07:52:59;35.83;;;20.90;;
48596;SDS011;34382;43.160;24.148;2023-12-14T07:54:31;32.58;;;18.85;;
48596;SDS011;34382;43.160;24.148;2023-12-14T07:56:04;32.42;;;18.80;;
48596;SDS011;34382;43.160;24.148;2023-12-14T07:57:37;30.42;;;18.45;;
48596;SDS011;34382;43.160;24.148;2023-12-14T07:59:09;30.83;;;17.85;;
48596;SDS011;34382;43.160;24.148;2023-12-14T08:00:42;28.90;;;18.08;;
48596;SDS011;34382;43.160;24.148;2023-12-14T08:02:15;31.63;;;17.70;;
48596;SDS011;34382;43.160;24.148;2023-12-14T08:03:47;32.35;;;18.98;;
48596;SDS011;34382;43.160;24.148;2023-12-14T08:05:19;34.70;;;20.45;;
48596;SDS011;34382;43.160;24.148;2023-12-14T08:06:52;36.50;;;22.50;;
48596;SDS011;34382;43.160;24.148;2023-12-14T08:08:25;43.63;;;25.23;;
48596;SDS011;34382;43.160;24.148;2023-12-14T08:09:58;43.92;;;25.15;;
48596;SDS011;34382;43.160;24.148;2023-12-14T08:11:31;43.83;;;26.52;;
48596;SDS011;34382;43.160;24.148;2023-12-14T08:13:04;43.22;;;26.52;;
48596;SDS011;34382;43.160;24.148;2023-12-14T08:14:36;40.78;;;22.83;;
48596;SDS011;34382;43.160;24.148;2023-12-14T08:16:15;33.15;;;20.73;;
48596;SDS011;34382;43.160;24.148;2023-12-14T08:17:49;34.83;;;20.00;;
48596;SDS011;34382;43.160;24.148;2023-12-14T08:19:22;32.05;;;18.45;;
48596;SDS011;34382;43.160;24.148;2023-12-14T08:20:54;28.42;;;16.33;;
48596;SDS011;34382;43.160;24.148;2023-12-14T08:22:27;28.42;;;15.18;;
48596;SDS011;34382;43.160;24.148;2023-12-14T08:24:00;25.20;;;14.32;;
48596;SDS011;34382;43.160;24.148;2023-12-14T08:25:32;24.73;;;14.95;;
48596;SDS011;34382;43.160;24.148;2023-12-14T08:27:04;25.40;;;14.20;;
48596;SDS011;34382;43.160;24.148;2023-12-14T08:28:37;23.98;;;14.48;;
48596;SDS011;34382;43.160;24.148;2023-12-14T08:54:29;23.67;;;13.82;;
48596;SDS011;34382;43.160;24.148;2023-12-14T08:56:02;23.73;;;14.93;;
48596;SDS011;34382;43.160;24.148;2023-12-14T08:57:35;23.33;;;13.85;;
48596;SDS011;34382;43.160;24.148;2023-12-14T08:59:08;21.77;;;15.25;;
48596;SDS011;34382;43.160;24.148;2023-12-14T09:00:41;23.77;;;14.18;;
48596;SDS011;34382;43.160;24.148;2023-12-14T09:02:14;23.48;;;14.05;;
48596;SDS011;34382;43.160;24.148;2023-12-14T09:03:47;23.60;;;14.65;;
48596;SDS011;34382;43.160;24.148;2023-12-14T09:05:21;22.95;;;13.43;;
48596;SDS011;34382;43.160;24.148;2023-12-14T09:06:53;23.67;;;13.47;;
48596;SDS011;34382;43.160;24.148;2023-12-14T09:08:25;24.70;;;13.23;;
48596;SDS011;34382;43.160;24.148;2023-12-14T09:09:58;22.70;;;13.38;;
48596;SDS011;34382;43.160;24.148;2023-12-14T09:13:06;21.90;;;13.07;;
48596;SDS011;34382;43.160;24.148;2023-12-14T09:14:39;26.73;;;15.63;;
48596;SDS011;34382;43.160;24.148;2023-12-14T09:16:14;28.42;;;15.07;;
48596;SDS011;34382;43.160;24.148;2023-12-14T09:17:49;26.38;;;15.38;;
48596;SDS011;34382;43.160;24.148;2023-12-14T09:19:22;26.40;;;14.80;;
48596;SDS011;34382;43.160;24.148;2023-12-14T09:20:55;27.80;;;16.42;;
48596;SDS011;34382;43.160;24.148;2023-12-14T09:22:27;26.08;;;14.73;;
48596;SDS011;34382;43.160;24.148;2023-12-14T09:23:59;24.92;;;15.95;;
48596;SDS011;34382;43.160;24.148;2023-12-14T09:25:33;29.77;;;18.63;;
48596;SDS011;34382;43.160;24.148;2023-12-14T09:46:21;20.88;;;12.20;;
48596;SDS011;34382;43.160;24.148;2023-12-14T09:47:58;12.75;;;5.88;;
48596;SDS011;34382;43.160;24.148;2023-12-14T09:49:32;13.05;;;5.03;;
48596;SDS011;34382;43.160;24.148;2023-12-14T09:51:05;11.57;;;4.95;;
48596;SDS011;34382;43.160;24.148;2023-12-14T09:52:38;8.20;;;4.47;;
48596;SDS011;34382;43.160;24.148;2023-12-14T09:54:10;9.38;;;4.20;;
48596;SDS011;34382;43.160;24.148;2023-12-14T09:55:43;12.57;;;5.30;;
48596;SDS011;34382;43.160;24.148;2023-12-14T09:57:15;11.73;;;4.57;;
48596;SDS011;34382;43.160;24.148;2023-12-14T09:58:50;10.20;;;5.35;;
48596;SDS011;34382;43.160;24.148;2023-12-14T10:00:33;10.43;;;5.47;;
48596;SDS011;34382;43.160;24.148;2023-12-14T10:02:09;8.10;;;4.40;;
48596;SDS011;34382;43.160;24.148;2023-12-14T10:03:43;7.30;;;3.30;;
48596;SDS011;34382;43.160;24.148;2023-12-14T10:05:15;7.72;;;3.65;;
48596;SDS011;34382;43.160;24.148;2023-12-14T10:06:48;8.15;;;4.18;;
48596;SDS011;34382;43.160;24.148;2023-12-14T10:08:21;8.45;;;4.40;;